sensor_id;sensor_type;location;lat;lon;timestamp;pressure;altitude;pressure_sealevel;temperature
27826;BMP280;15077;49.704;9.908;2022-08-19T00:00:47;97660.84;;;27.57
27826;BMP280;15077;49.704;9.908;2022-08-19T00:03:14;97660.22;;;27.55
27826;BMP280;15077;49.704;9.908;2022-08-19T00:05:39;97661.19;;;27.54
27826;BMP280;15077;49.704;9.908;2022-08-19T00:08:07;97660.38;;;27.54
27826;BMP280;15077;49.704;9.908;2022-08-19T00:10:33;97656.34;;;27.51
27826;BMP280;15077;49.704;9.908;2022-08-19T00:12:59;97651.13;;;27.51
27826;BMP280;15077;49.704;9.908;2022-08-19T00:15:25;97642.66;;;27.49
27826;BMP280;15077;49.704;9.908;2022-08-19T00:17:51;97638.44;;;27.48
27826;BMP280;15077;49.704;9.908;2022-08-19T00:20:21;97639.44;;;27.47
27826;BMP280;15077;49.704;9.908;2022-08-19T00:22:47;97642.03;;;27.47
27826;BMP280;15077;49.704;9.908;2022-08-19T00:25:15;97636.19;;;27.45
27826;BMP280;15077;49.704;9.908;2022-08-19T00:27:41;97636.19;;;27.45
27826;BMP280;15077;49.704;9.908;2022-08-19T00:30:08;97630.19;;;27.45
27826;BMP280;15077;49.704;9.908;2022-08-19T00:32:35;97626.78;;;27.44
27826;BMP280;15077;49.704;9.908;2022-08-19T00:35:02;97634.59;;;27.44
27826;BMP280;15077;49.704;9.908;2022-08-19T00:37:28;97632.97;;;27.43
27826;BMP280;15077;49.704;9.908;2022-08-19T00:39:54;97627.94;;;27.42
27826;BMP280;15077;49.704;9.908;2022-08-19T00:42:22;97623.69;;;27.41
27826;BMP280;15077;49.704;9.908;2022-08-19T00:44:49;97617.88;;;27.39
27826;BMP280;15077;49.704;9.908;2022-08-19T00:47:16;97621.63;;;27.37
27826;BMP280;15077;49.704;9.908;2022-08-19T00:49:47;97623.00;;;27.33
27826;BMP280;15077;49.704;9.908;2022-08-19T00:52:40;97629.06;;;27.25
27826;BMP280;15077;49.704;9.908;2022-08-19T00:55:16;97636.88;;;27.25
27826;BMP280;15077;49.704;9.908;2022-08-19T00:57:53;97630.22;;;27.23
27826;BMP280;15077;49.704;9.908;2022-08-19T01:00:22;97632.19;;;27.21
27826;BMP280;15077;49.704;9.908;2022-08-19T01:02:49;97622.13;;;27.18
27826;BMP280;15077;49.704;9.908;2022-08-19T01:05:20;97627.50;;;27.16
27826;BMP280;15077;49.704;9.908;2022-08-19T01:07:49;97622.81;;;27.12
27826;BMP280;15077;49.704;9.908;2022-08-19T01:10:23;97622.38;;;27.08
27826;BMP280;15077;49.704;9.908;2022-08-19T01:12:51;97621.91;;;27.05
27826;BMP280;15077;49.704;9.908;2022-08-19T01:15:23;97615.44;;;27.01
27826;BMP280;15077;49.704;9.908;2022-08-19T01:17:53;97595.78;;;26.98
27826;BMP280;15077;49.704;9.908;2022-08-19T01:20:23;97603.94;;;26.95
27826;BMP280;15077;49.704;9.908;2022-08-19T01:22:56;97601.84;;;26.91
27826;BMP280;15077;49.704;9.908;2022-08-19T01:25:28;97614.19;;;26.89
27826;BMP280;15077;49.704;9.908;2022-08-19T01:27:55;97624.59;;;26.67
27826;BMP280;15077;49.704;9.908;2022-08-19T01:30:30;97632.66;;;26.80
27826;BMP280;15077;49.704;9.908;2022-08-19T01:32:56;97638.63;;;26.80
27826;BMP280;15077;49.704;9.908;2022-08-19T01:35:25;97649.03;;;26.80
27826;BMP280;15077;49.704;9.908;2022-08-19T01:38:04;97655.22;;;26.79
27826;BMP280;15077;49.704;9.908;2022-08-19T01:40:38;97659.63;;;26.79
27826;BMP280;15077;49.704;9.908;2022-08-19T01:43:06;97663.34;;;26.76
27826;BMP280;15077;49.704;9.908;2022-08-19T01:45:34;97665.00;;;26.77
27826;BMP280;15077;49.704;9.908;2022-08-19T01:48:01;97666.97;;;26.75
27826;BMP280;15077;49.704;9.908;2022-08-19T01:50:28;97657.53;;;26.74
27826;BMP280;15077;49.704;9.908;2022-08-19T01:55:21;97650.69;;;26.73
27826;BMP280;15077;49.704;9.908;2022-08-19T02:00:24;97641.63;;;26.69
27826;BMP280;15077;49.704;9.908;2022-08-19T02:02:50;97652.84;;;26.70
27826;BMP280;15077;49.704;9.908;2022-08-19T02:05:16;97670.88;;;26.71
27826;BMP280;15077;49.704;9.908;2022-08-19T02:07:44;97676.25;;;26.70
27826;BMP280;15077;49.704;9.908;2022-08-19T02:12:40;97657.22;;;26.69
27826;BMP280;15077;49.704;9.908;2022-08-19T02:15:07;97653.66;;;26.70
27826;BMP280;15077;49.704;9.908;2022-08-19T02:17:33;97648.44;;;26.70
27826;BMP280;15077;49.704;9.908;2022-08-19T02:19:59;97651.03;;;26.70
27826;BMP280;15077;49.704;9.908;2022-08-19T02:22:26;97653.03;;;26.68
27826;BMP280;15077;49.704;9.908;2022-08-19T02:24:53;97655.63;;;26.68
27826;BMP280;15077;49.704;9.908;2022-08-19T02:27:20;97661.16;;;26.65
27826;BMP280;15077;49.704;9.908;2022-08-19T02:29:49;97668.28;;;26.63
27826;BMP280;15077;49.704;9.908;2022-08-19T02:32:16;97666.69;;;26.62
27826;BMP280;15077;49.704;9.908;2022-08-19T02:34:43;97669.47;;;26.61
27826;BMP280;15077;49.704;9.908;2022-08-19T02:37:08;97673.84;;;26.60
27826;BMP280;15077;49.704;9.908;2022-08-19T02:39:54;97672.25;;;26.59
27826;BMP280;15077;49.704;9.908;2022-08-19T02:42:20;97668.81;;;26.59
27826;BMP280;15077;49.704;9.908;2022-08-19T02:44:46;97655.00;;;26.58
27826;BMP280;15077;49.704;9.908;2022-08-19T02:47:12;97654.22;;;26.58
27826;BMP280;15077;49.704;9.908;2022-08-19T02:49:40;97647.38;;;26.57
27826;BMP280;15077;49.704;9.908;2022-08-19T02:52:06;97660.38;;;26.57
27826;BMP280;15077;49.704;9.908;2022-08-19T02:54:31;97667.38;;;26.56
27826;BMP280;15077;49.704;9.908;2022-08-19T02:56:57;97681.34;;;26.55
27826;BMP280;15077;49.704;9.908;2022-08-19T02:59:24;97681.34;;;26.55
27826;BMP280;15077;49.704;9.908;2022-08-19T03:01:51;97702.13;;;26.55
27826;BMP280;15077;49.704;9.908;2022-08-19T03:04:17;97689.94;;;26.56
27826;BMP280;15077;49.704;9.908;2022-08-19T03:06:47;97694.50;;;26.54
27826;BMP280;15077;49.704;9.908;2022-08-19T03:09:14;97686.88;;;26.52
27826;BMP280;15077;49.704;9.908;2022-08-19T03:11:40;97685.25;;;26.51
27826;BMP280;15077;49.704;9.908;2022-08-19T03:14:08;97677.81;;;26.48
27826;BMP280;15077;49.704;9.908;2022-08-19T03:16:46;97672.94;;;26.45
27826;BMP280;15077;49.704;9.908;2022-08-19T03:19:15;97661.13;;;26.43
27826;BMP280;15077;49.704;9.908;2022-08-19T03:21:43;97669.09;;;26.41
27826;BMP280;15077;49.704;9.908;2022-08-19T03:24:14;97670.38;;;26.38
27826;BMP280;15077;49.704;9.908;2022-08-19T03:26:44;97674.13;;;26.35
27826;BMP280;15077;49.704;9.908;2022-08-19T03:29:10;97683.25;;;26.31
27826;BMP280;15077;49.704;9.908;2022-08-19T03:31:39;97668.81;;;26.29
27826;BMP280;15077;49.704;9.908;2022-08-19T03:34:06;97672.69;;;26.25
27826;BMP280;15077;49.704;9.908;2022-08-19T03:36:33;97674.66;;;26.23
27826;BMP280;15077;49.704;9.908;2022-08-19T03:39:01;97676.56;;;26.21
27826;BMP280;15077;49.704;9.908;2022-08-19T03:41:31;97682.09;;;26.18
27826;BMP280;15077;49.704;9.908;2022-08-19T03:43:57;97672.88;;;26.15
27826;BMP280;15077;49.704;9.908;2022-08-19T03:46:28;97662.66;;;26.14
27826;BMP280;15077;49.704;9.908;2022-08-19T03:48:58;97665.75;;;26.09
27826;BMP280;15077;49.704;9.908;2022-08-19T03:51:37;97670.47;;;26.06
27826;BMP280;15077;49.704;9.908;2022-08-19T03:54:08;97674.06;;;26.05
27826;BMP280;15077;49.704;9.908;2022-08-19T03:56:39;97670.97;;;26.01
27826;BMP280;15077;49.704;9.908;2022-08-19T03:59:10;97672.94;;;25.99
27826;BMP280;15077;49.704;9.908;2022-08-19T04:01:36;97673.91;;;25.98
27826;BMP280;15077;49.704;9.908;2022-08-19T04:04:03;97668.69;;;25.98
27826;BMP280;15077;49.704;9.908;2022-08-19T04:06:32;97671.31;;;25.98
27826;BMP280;15077;49.704;9.908;2022-08-19T04:09:02;97663.69;;;25.97
27826;BMP280;15077;49.704;9.908;2022-08-19T04:11:35;97661.09;;;25.97
27826;BMP280;15077;49.704;9.908;2022-08-19T04:14:02;97657.84;;;25.95
27826;BMP280;15077;49.704;9.908;2022-08-19T04:16:28;97663.69;;;25.97
27826;BMP280;15077;49.704;9.908;2022-08-19T04:18:56;97657.69;;;25.96
27826;BMP280;15077;49.704;9.908;2022-08-19T04:21:25;97665.31;;;25.98
27826;BMP280;15077;49.704;9.908;2022-08-19T04:23:52;97667.91;;;25.98
27826;BMP280;15077;49.704;9.908;2022-08-19T04:26:32;97675.69;;;25.98
27826;BMP280;15077;49.704;9.908;2022-08-19T04:29:06;97682.50;;;25.99
27826;BMP280;15077;49.704;9.908;2022-08-19T04:31:33;97684.13;;;26.00
27826;BMP280;15077;49.704;9.908;2022-08-19T04:34:05;97689.31;;;26.00
27826;BMP280;15077;49.704;9.908;2022-08-19T04:36:35;97694.50;;;26.00
27826;BMP280;15077;49.704;9.908;2022-08-19T04:39:11;97682.50;;;25.99
27826;BMP280;15077;49.704;9.908;2022-08-19T04:41:38;97693.69;;;25.99
27826;BMP280;15077;49.704;9.908;2022-08-19T04:44:24;97693.88;;;25.98
27826;BMP280;15077;49.704;9.908;2022-08-19T04:46:51;97708.66;;;25.97
27826;BMP280;15077;49.704;9.908;2022-08-19T04:49:21;97704.41;;;25.96
27826;BMP280;15077;49.704;9.908;2022-08-19T04:51:49;97699.41;;;25.95
27826;BMP280;15077;49.704;9.908;2022-08-19T04:54:18;97704.59;;;25.95
27826;BMP280;15077;49.704;9.908;2022-08-19T04:56:49;97710.75;;;25.94
27826;BMP280;15077;49.704;9.908;2022-08-19T04:59:17;97705.56;;;25.94
27826;BMP280;15077;49.704;9.908;2022-08-19T05:01:47;97711.59;;;25.94
27826;BMP280;15077;49.704;9.908;2022-08-19T05:04:18;97710.75;;;25.94
27826;BMP280;15077;49.704;9.908;2022-08-19T05:06:47;97704.75;;;25.93
27826;BMP280;15077;49.704;9.908;2022-08-19T05:09:15;97708.16;;;25.94
27826;BMP280;15077;49.704;9.908;2022-08-19T05:11:42;97709.16;;;25.93
27826;BMP280;15077;49.704;9.908;2022-08-19T05:14:10;97683.19;;;25.93
27826;BMP280;15077;49.704;9.908;2022-08-19T05:16:38;97683.34;;;25.91
27826;BMP280;15077;49.704;9.908;2022-08-19T05:19:04;97693.91;;;25.90
27826;BMP280;15077;49.704;9.908;2022-08-19T05:21:49;97707.84;;;25.89
27826;BMP280;15077;49.704;9.908;2022-08-19T05:24:33;97712.25;;;25.89
27826;BMP280;15077;49.704;9.908;2022-08-19T05:27:01;97717.44;;;25.89
27826;BMP280;15077;49.704;9.908;2022-08-19T05:29:29;97726.03;;;25.89
27826;BMP280;15077;49.704;9.908;2022-08-19T05:31:58;97714.00;;;25.88
27826;BMP280;15077;49.704;9.908;2022-08-19T05:34:25;97721.16;;;25.86
27826;BMP280;15077;49.704;9.908;2022-08-19T05:36:56;97722.78;;;25.87
27826;BMP280;15077;49.704;9.908;2022-08-19T05:39:28;97733.97;;;25.88
27826;BMP280;15077;49.704;9.908;2022-08-19T05:42:02;97732.34;;;25.87
27826;BMP280;15077;49.704;9.908;2022-08-19T05:44:31;97736.56;;;25.88
27826;BMP280;15077;49.704;9.908;2022-08-19T05:47:03;97739.00;;;25.89
27826;BMP280;15077;49.704;9.908;2022-08-19T05:49:34;97742.25;;;25.91
27826;BMP280;15077;49.704;9.908;2022-08-19T05:52:09;97750.03;;;25.91
27826;BMP280;15077;49.704;9.908;2022-08-19T05:54:41;97753.47;;;25.91
27826;BMP280;15077;49.704;9.908;2022-08-19T05:57:09;97757.00;;;25.90
27826;BMP280;15077;49.704;9.908;2022-08-19T05:59:35;97755.88;;;25.93
27826;BMP280;15077;49.704;9.908;2022-08-19T06:02:04;97759.13;;;25.95
27826;BMP280;15077;49.704;9.908;2022-08-19T06:04:30;97765.94;;;25.96
27826;BMP280;15077;49.704;9.908;2022-08-19T06:06:57;97764.94;;;25.97
27826;BMP280;15077;49.704;9.908;2022-08-19T06:09:23;97762.19;;;25.98
27826;BMP280;15077;49.704;9.908;2022-08-19T06:11:54;97763.81;;;25.99
27826;BMP280;15077;49.704;9.908;2022-08-19T06:14:32;97757.00;;;25.98
27826;BMP280;15077;49.704;9.908;2022-08-19T06:17:01;97761.06;;;26.01
27826;BMP280;15077;49.704;9.908;2022-08-19T06:19:29;97766.88;;;26.03
27826;BMP280;15077;49.704;9.908;2022-08-19T06:22:00;97769.31;;;26.04
27826;BMP280;15077;49.704;9.908;2022-08-19T06:24:28;97784.56;;;26.07
27826;BMP280;15077;49.704;9.908;2022-08-19T06:26:57;97774.84;;;26.09
27826;BMP280;15077;49.704;9.908;2022-08-19T06:29:25;97778.88;;;26.12
27826;BMP280;15077;49.704;9.908;2022-08-19T06:31:55;97776.97;;;26.14
27826;BMP280;15077;49.704;9.908;2022-08-19T06:34:22;97781.97;;;26.15
27826;BMP280;15077;49.704;9.908;2022-08-19T06:36:51;97786.84;;;26.18
27826;BMP280;15077;49.704;9.908;2022-08-19T06:39:22;97800.13;;;26.23
27826;BMP280;15077;49.704;9.908;2022-08-19T06:41:50;97793.81;;;26.26
27826;BMP280;15077;49.704;9.908;2022-08-19T06:44:22;97799.50;;;26.29
27826;BMP280;15077;49.704;9.908;2022-08-19T06:46:48;97795.16;;;26.30
27826;BMP280;15077;49.704;9.908;2022-08-19T06:49:16;97799.00;;;26.34
27826;BMP280;15077;49.704;9.908;2022-08-19T06:51:45;97802.28;;;26.36
27826;BMP280;15077;49.704;9.908;2022-08-19T06:54:13;97807.31;;;26.37
27826;BMP280;15077;49.704;9.908;2022-08-19T06:56:39;97800.94;;;26.39
27826;BMP280;15077;49.704;9.908;2022-08-19T06:59:13;97801.44;;;26.43
27826;BMP280;15077;49.704;9.908;2022-08-19T07:01:46;97793.66;;;26.43
27826;BMP280;15077;49.704;9.908;2022-08-19T07:04:14;97798.34;;;26.47
27826;BMP280;15077;49.704;9.908;2022-08-19T07:06:42;97799.16;;;26.48
27826;BMP280;15077;49.704;9.908;2022-08-19T07:09:14;97803.22;;;26.50
27826;BMP280;15077;49.704;9.908;2022-08-19T07:11:46;97799.63;;;26.51
27826;BMP280;15077;49.704;9.908;2022-08-19T07:14:13;97793.28;;;26.54
27826;BMP280;15077;49.704;9.908;2022-08-19T07:16:39;97798.16;;;26.57
27826;BMP280;15077;49.704;9.908;2022-08-19T07:19:05;97785.94;;;26.57
27826;BMP280;15077;49.704;9.908;2022-08-19T07:21:32;97793.41;;;26.60
27826;BMP280;15077;49.704;9.908;2022-08-19T07:23:59;97789.84;;;26.61
27826;BMP280;15077;49.704;9.908;2022-08-19T07:26:32;97799.91;;;26.64
27826;BMP280;15077;49.704;9.908;2022-08-19T07:28:59;97795.50;;;26.65
27826;BMP280;15077;49.704;9.908;2022-08-19T07:31:27;97797.94;;;26.66
27826;BMP280;15077;49.704;9.908;2022-08-19T07:33:55;97800.03;;;26.71
27826;BMP280;15077;49.704;9.908;2022-08-19T07:36:26;97800.53;;;26.74
27826;BMP280;15077;49.704;9.908;2022-08-19T07:39:02;97803.41;;;26.79
27826;BMP280;15077;49.704;9.908;2022-08-19T07:41:29;97810.88;;;26.82
27826;BMP280;15077;49.704;9.908;2022-08-19T07:43:56;97813.16;;;26.85
27826;BMP280;15077;49.704;9.908;2022-08-19T07:46:22;97807.59;;;26.88
27826;BMP280;15077;49.704;9.908;2022-08-19T07:48:50;97814.13;;;26.92
27826;BMP280;15077;49.704;9.908;2022-08-19T07:51:20;97810.22;;;26.96
27826;BMP280;15077;49.704;9.908;2022-08-19T07:53:48;97811.47;;;27.00
27826;BMP280;15077;49.704;9.908;2022-08-19T07:56:18;97813.56;;;27.04
27826;BMP280;15077;49.704;9.908;2022-08-19T07:58:47;97809.50;;;27.10
27826;BMP280;15077;49.704;9.908;2022-08-19T08:01:19;97806.03;;;27.17
27826;BMP280;15077;49.704;9.908;2022-08-19T08:03:45;97810.09;;;27.20
27826;BMP280;15077;49.704;9.908;2022-08-19T08:06:30;97791.19;;;27.26
27826;BMP280;15077;49.704;9.908;2022-08-19T08:09:20;97800.13;;;27.31
27826;BMP280;15077;49.704;9.908;2022-08-19T08:11:51;97806.41;;;27.37
27826;BMP280;15077;49.704;9.908;2022-08-19T08:14:24;97809.31;;;27.41
27826;BMP280;15077;49.704;9.908;2022-08-19T08:16:51;97805.53;;;27.44
27826;BMP280;15077;49.704;9.908;2022-08-19T08:19:21;97814.47;;;27.49
27826;BMP280;15077;49.704;9.908;2022-08-19T08:21:49;97818.56;;;27.52
27826;BMP280;15077;49.704;9.908;2022-08-19T08:24:16;97816.41;;;27.55
27826;BMP280;15077;49.704;9.908;2022-08-19T08:26:42;97834.28;;;27.58
27826;BMP280;15077;49.704;9.908;2022-08-19T08:29:10;97827.09;;;27.60
27826;BMP280;15077;49.704;9.908;2022-08-19T08:31:39;97826.94;;;27.62
27826;BMP280;15077;49.704;9.908;2022-08-19T08:34:05;97835.56;;;27.62
27826;BMP280;15077;49.704;9.908;2022-08-19T08:36:31;97838.00;;;27.64
27826;BMP280;15077;49.704;9.908;2022-08-19T08:39:00;97836.19;;;27.64
27826;BMP280;15077;49.704;9.908;2022-08-19T08:41:53;97833.31;;;27.59
27826;BMP280;15077;49.704;9.908;2022-08-19T08:44:56;97839.50;;;27.58
27826;BMP280;15077;49.704;9.908;2022-08-19T08:47:28;97836.03;;;27.66
27826;BMP280;15077;49.704;9.908;2022-08-19T08:50:10;97844.16;;;27.71
27826;BMP280;15077;49.704;9.908;2022-08-19T08:52:47;97841.81;;;27.53
27826;BMP280;15077;49.704;9.908;2022-08-19T08:55:23;97847.56;;;27.71
27826;BMP280;15077;49.704;9.908;2022-08-19T09:00:37;97844.41;;;27.76
27826;BMP280;15077;49.704;9.908;2022-08-19T09:03:16;97843.91;;;27.80
27826;BMP280;15077;49.704;9.908;2022-08-19T09:06:06;97850.09;;;27.79
27826;BMP280;15077;49.704;9.908;2022-08-19T09:08:56;97844.53;;;27.82
27826;BMP280;15077;49.704;9.908;2022-08-19T09:15:02;97841.41;;;27.87
27826;BMP280;15077;49.704;9.908;2022-08-19T09:17:31;97843.97;;;27.94
27826;BMP280;15077;49.704;9.908;2022-08-19T09:20:20;97844.75;;;27.95
27826;BMP280;15077;49.704;9.908;2022-08-19T09:22:46;97843.09;;;28.02
27826;BMP280;15077;49.704;9.908;2022-08-19T09:25:18;97835.53;;;28.07
27826;BMP280;15077;49.704;9.908;2022-08-19T09:27:45;97832.75;;;28.08
27826;BMP280;15077;49.704;9.908;2022-08-19T09:30:20;97829.66;;;28.13
27826;BMP280;15077;49.704;9.908;2022-08-19T09:32:49;97824.75;;;28.18
27826;BMP280;15077;49.704;9.908;2022-08-19T09:35:15;97827.78;;;28.21
27826;BMP280;15077;49.704;9.908;2022-08-19T09:37:42;97822.31;;;28.31
27826;BMP280;15077;49.704;9.908;2022-08-19T09:40:10;97817.41;;;28.36
27826;BMP280;15077;49.704;9.908;2022-08-19T09:42:37;97813.59;;;28.38
27826;BMP280;15077;49.704;9.908;2022-08-19T09:45:04;97808.88;;;28.41
27826;BMP280;15077;49.704;9.908;2022-08-19T09:47:30;97805.91;;;28.44
27826;BMP280;15077;49.704;9.908;2022-08-19T09:49:57;97816.22;;;28.52
27826;BMP280;15077;49.704;9.908;2022-08-19T09:52:23;97816.66;;;28.56
27826;BMP280;15077;49.704;9.908;2022-08-19T09:54:52;97822.34;;;28.59
27826;BMP280;15077;49.704;9.908;2022-08-19T09:57:18;97814.53;;;28.59
27826;BMP280;15077;49.704;9.908;2022-08-19T09:59:44;97819.22;;;28.64
27826;BMP280;15077;49.704;9.908;2022-08-19T10:02:10;97813.81;;;28.65
27826;BMP280;15077;49.704;9.908;2022-08-19T10:04:36;97819.69;;;28.67
27826;BMP280;15077;49.704;9.908;2022-08-19T10:07:20;97823.13;;;28.68
27826;BMP280;15077;49.704;9.908;2022-08-19T10:09:47;97832.34;;;28.70
27826;BMP280;15077;49.704;9.908;2022-08-19T10:12:14;97830.41;;;28.72
27826;BMP280;15077;49.704;9.908;2022-08-19T10:14:41;97837.03;;;28.75
27826;BMP280;15077;49.704;9.908;2022-08-19T10:17:08;97833.44;;;28.76
27826;BMP280;15077;49.704;9.908;2022-08-19T10:19:34;97839.47;;;28.76
27826;BMP280;15077;49.704;9.908;2022-08-19T10:22:06;97846.31;;;28.77
27826;BMP280;15077;49.704;9.908;2022-08-19T10:24:35;97841.09;;;28.77
27826;BMP280;15077;49.704;9.908;2022-08-19T10:27:02;97842.06;;;28.76
27826;BMP280;15077;49.704;9.908;2022-08-19T10:29:30;97843.88;;;28.76
27826;BMP280;15077;49.704;9.908;2022-08-19T10:32:02;97834.25;;;28.76
27826;BMP280;15077;49.704;9.908;2022-08-19T10:34:29;97835.88;;;28.77
27826;BMP280;15077;49.704;9.908;2022-08-19T10:36:57;97823.44;;;28.79
27826;BMP280;15077;49.704;9.908;2022-08-19T10:39:23;97825.06;;;28.80
27826;BMP280;15077;49.704;9.908;2022-08-19T10:41:49;97817.88;;;28.82
27826;BMP280;15077;49.704;9.908;2022-08-19T10:44:15;97824.53;;;28.85
27826;BMP280;15077;49.704;9.908;2022-08-19T10:46:43;97821.75;;;28.86
27826;BMP280;15077;49.704;9.908;2022-08-19T10:49:11;97818.78;;;28.89
27826;BMP280;15077;49.704;9.908;2022-08-19T10:51:39;97821.00;;;28.92
27826;BMP280;15077;49.704;9.908;2022-08-19T10:54:25;97820.47;;;28.96
27826;BMP280;15077;49.704;9.908;2022-08-19T10:57:11;97824.16;;;29.02
27826;BMP280;15077;49.704;9.908;2022-08-19T10:59:38;97815.78;;;29.06
27826;BMP280;15077;49.704;9.908;2022-08-19T11:02:07;97819.47;;;29.12
27826;BMP280;15077;49.704;9.908;2022-08-19T11:04:36;97822.34;;;29.17
27826;BMP280;15077;49.704;9.908;2022-08-19T11:07:05;97812.13;;;29.22
27826;BMP280;15077;49.704;9.908;2022-08-19T11:09:40;97808.81;;;29.28
27826;BMP280;15077;49.704;9.908;2022-08-19T11:12:08;97810.09;;;29.32
27826;BMP280;15077;49.704;9.908;2022-08-19T11:14:36;97815.38;;;29.38
27826;BMP280;15077;49.704;9.908;2022-08-19T11:17:04;97800.97;;;29.42
27826;BMP280;15077;49.704;9.908;2022-08-19T11:19:31;97806.59;;;29.45
27826;BMP280;15077;49.704;9.908;2022-08-19T11:21:57;97814.72;;;29.50
27826;BMP280;15077;49.704;9.908;2022-08-19T11:24:27;97814.16;;;29.55
27826;BMP280;15077;49.704;9.908;2022-08-19T11:27:01;97814.22;;;29.61
27826;BMP280;15077;49.704;9.908;2022-08-19T11:29:28;97813.84;;;29.64
27826;BMP280;15077;49.704;9.908;2022-08-19T11:31:54;97802.22;;;29.67
27826;BMP280;15077;49.704;9.908;2022-08-19T11:34:25;97807.66;;;29.72
27826;BMP280;15077;49.704;9.908;2022-08-19T11:36:54;97806.88;;;29.71
27826;BMP280;15077;49.704;9.908;2022-08-19T11:39:25;97815.31;;;29.73
27826;BMP280;15077;49.704;9.908;2022-08-19T11:41:51;97813.34;;;29.75
27826;BMP280;15077;49.704;9.908;2022-08-19T11:44:17;97811.00;;;29.80
27826;BMP280;15077;49.704;9.908;2022-08-19T11:46:45;97808.03;;;29.83
27826;BMP280;15077;49.704;9.908;2022-08-19T11:49:17;97793.59;;;29.87
27826;BMP280;15077;49.704;9.908;2022-08-19T11:51:45;97808.06;;;29.89
27826;BMP280;15077;49.704;9.908;2022-08-19T11:54:14;97802.47;;;29.92
27826;BMP280;15077;49.704;9.908;2022-08-19T11:56:40;97807.94;;;29.97
27826;BMP280;15077;49.704;9.908;2022-08-19T11:59:06;97792.69;;;30.01
27826;BMP280;15077;49.704;9.908;2022-08-19T12:01:33;97794.72;;;30.05
27826;BMP280;15077;49.704;9.908;2022-08-19T12:04:00;97793.19;;;30.11
27826;BMP280;15077;49.704;9.908;2022-08-19T12:06:32;97792.41;;;30.17
27826;BMP280;15077;49.704;9.908;2022-08-19T12:09:06;97796.88;;;30.23
27826;BMP280;15077;49.704;9.908;2022-08-19T12:11:33;97806.78;;;30.27
27826;BMP280;15077;49.704;9.908;2022-08-19T12:13:59;97796.72;;;30.31
27826;BMP280;15077;49.704;9.908;2022-08-19T12:16:28;97798.16;;;30.33
27826;BMP280;15077;49.704;9.908;2022-08-19T12:18:56;97797.16;;;30.34
27826;BMP280;15077;49.704;9.908;2022-08-19T12:21:26;97792.13;;;30.33
27826;BMP280;15077;49.704;9.908;2022-08-19T12:23:57;97790.50;;;30.32
27826;BMP280;15077;49.704;9.908;2022-08-19T12:26:26;97790.16;;;30.35
27826;BMP280;15077;49.704;9.908;2022-08-19T12:28:53;97790.56;;;30.38
27826;BMP280;15077;49.704;9.908;2022-08-19T12:31:19;97797.22;;;30.40
27826;BMP280;15077;49.704;9.908;2022-08-19T12:33:47;97806.69;;;30.41
27826;BMP280;15077;49.704;9.908;2022-08-19T12:36:15;97797.03;;;30.42
27826;BMP280;15077;49.704;9.908;2022-08-19T12:38:42;97818.78;;;30.42
27826;BMP280;15077;49.704;9.908;2022-08-19T12:41:13;97814.34;;;30.43
27826;BMP280;15077;49.704;9.908;2022-08-19T12:43:39;97816.97;;;30.43
27826;BMP280;15077;49.704;9.908;2022-08-19T12:46:08;97814.97;;;30.45
27826;BMP280;15077;49.704;9.908;2022-08-19T12:48:36;97818.41;;;30.45
27826;BMP280;15077;49.704;9.908;2022-08-19T12:51:12;97818.41;;;30.45
27826;BMP280;15077;49.704;9.908;2022-08-19T12:53:39;97822.81;;;30.45
27826;BMP280;15077;49.704;9.908;2022-08-19T12:56:07;97813.19;;;30.45
27826;BMP280;15077;49.704;9.908;2022-08-19T12:58:34;97814.78;;;30.46
27826;BMP280;15077;49.704;9.908;2022-08-19T13:01:07;97813.78;;;30.47
27826;BMP280;15077;49.704;9.908;2022-08-19T13:03:33;97812.16;;;30.46
27826;BMP280;15077;49.704;9.908;2022-08-19T13:05:59;97818.81;;;30.49
27826;BMP280;15077;49.704;9.908;2022-08-19T13:08:25;97812.59;;;30.50
27826;BMP280;15077;49.704;9.908;2022-08-19T13:10:51;97807.19;;;30.51
27826;BMP280;15077;49.704;9.908;2022-08-19T13:13:17;97814.66;;;30.54
27826;BMP280;15077;49.704;9.908;2022-08-19T13:15:43;97810.81;;;30.57
27826;BMP280;15077;49.704;9.908;2022-08-19T13:18:12;97806.41;;;30.57
27826;BMP280;15077;49.704;9.908;2022-08-19T13:20:39;97799.16;;;30.59
27826;BMP280;15077;49.704;9.908;2022-08-19T13:23:07;97805.84;;;30.62
27826;BMP280;15077;49.704;9.908;2022-08-19T13:25:33;97802.00;;;30.64
27826;BMP280;15077;49.704;9.908;2022-08-19T13:28:00;97791.16;;;30.67
27826;BMP280;15077;49.704;9.908;2022-08-19T13:30:27;97797.63;;;30.71
27826;BMP280;15077;49.704;9.908;2022-08-19T13:33:12;97796.44;;;30.74
27826;BMP280;15077;49.704;9.908;2022-08-19T13:35:51;97801.47;;;30.75
27826;BMP280;15077;49.704;9.908;2022-08-19T13:38:23;97792.41;;;30.78
27826;BMP280;15077;49.704;9.908;2022-08-19T13:40:52;97793.66;;;30.82
27826;BMP280;15077;49.704;9.908;2022-08-19T13:43:26;97785.22;;;30.86
27826;BMP280;15077;49.704;9.908;2022-08-19T13:45:54;97786.28;;;30.91
27826;BMP280;15077;49.704;9.908;2022-08-19T13:48:25;97790.31;;;30.94
27826;BMP280;15077;49.704;9.908;2022-08-19T13:50:52;97783.69;;;30.98
27826;BMP280;15077;49.704;9.908;2022-08-19T13:53:18;97790.16;;;31.02
27826;BMP280;15077;49.704;9.908;2022-08-19T13:55:44;97791.38;;;31.06
27826;BMP280;15077;49.704;9.908;2022-08-19T13:58:11;97791.00;;;31.09
27826;BMP280;15077;49.704;9.908;2022-08-19T14:00:43;97794.00;;;31.12
27826;BMP280;15077;49.704;9.908;2022-08-19T14:03:10;97793.00;;;31.13
27826;BMP280;15077;49.704;9.908;2022-08-19T14:05:36;97793.59;;;31.15
27826;BMP280;15077;49.704;9.908;2022-08-19T14:08:03;97793.03;;;31.20
27826;BMP280;15077;49.704;9.908;2022-08-19T14:10:30;97785.75;;;31.22
27826;BMP280;15077;49.704;9.908;2022-08-19T14:13:01;97772.47;;;31.23
27826;BMP280;15077;49.704;9.908;2022-08-19T14:15:28;97786.41;;;31.24
27826;BMP280;15077;49.704;9.908;2022-08-19T14:17:56;97782.16;;;31.23
27826;BMP280;15077;49.704;9.908;2022-08-19T14:20:22;97775.09;;;31.23
27826;BMP280;15077;49.704;9.908;2022-08-19T14:22:49;97779.34;;;31.24
27826;BMP280;15077;49.704;9.908;2022-08-19T14:25:21;97775.31;;;31.28
27826;BMP280;15077;49.704;9.908;2022-08-19T14:27:48;97781.16;;;31.30
27826;BMP280;15077;49.704;9.908;2022-08-19T14:30:19;97775.53;;;31.33
27826;BMP280;15077;49.704;9.908;2022-08-19T14:32:46;97771.13;;;31.34
27826;BMP280;15077;49.704;9.908;2022-08-19T14:35:15;97773.34;;;31.37